createdAt,value
2022-07-26T00:02:21.431Z,2.47
2022-07-26T00:04:47.914Z,3.27
2022-07-26T00:07:14.406Z,2.50
2022-07-26T00:09:44.977Z,2.63
2022-07-26T00:12:14.193Z,1.93
2022-07-26T00:14:40.564Z,2.70
2022-07-26T00:17:08.082Z,2.80
2022-07-26T00:19:34.446Z,2.57
2022-07-26T00:22:19.505Z,2.60
2022-07-26T00:24:45.884Z,2.80
2022-07-26T00:27:12.271Z,2.90
2022-07-26T00:29:38.624Z,2.77
2022-07-26T00:32:05.143Z,2.50
2022-07-26T00:34:31.685Z,1.60
2022-07-26T00:36:58.054Z,2.30
2022-07-26T00:39:24.539Z,2.70
2022-07-26T00:41:51.159Z,2.07
2022-07-26T00:44:17.552Z,2.20
2022-07-26T00:46:44.474Z,2.40
2022-07-26T00:49:11.819Z,2.10
2022-07-26T00:51:38.705Z,2.60
2022-07-26T00:54:06.188Z,2.20
2022-07-26T00:56:33.686Z,2.47
2022-07-26T00:59:00.957Z,3.17
2022-07-26T01:01:27.368Z,2.60
2022-07-26T01:03:54.419Z,2.87
2022-07-26T01:06:25.318Z,3.00
2022-07-26T01:08:53.706Z,2.73
2022-07-26T01:11:20.107Z,2.33
2022-07-26T01:13:50.493Z,2.50
2022-07-26T01:16:17.648Z,3.23
2022-07-26T01:18:44.521Z,3.30
2022-07-26T01:21:13.976Z,3.47
2022-07-26T01:23:41.172Z,3.17
2022-07-26T01:26:08.203Z,3.23
2022-07-26T01:28:40.434Z,2.90
2022-07-26T01:31:07.955Z,3.10
2022-07-26T01:33:34.943Z,2.83
2022-07-26T01:36:01.793Z,3.27
2022-07-26T01:38:28.429Z,2.93
2022-07-26T01:40:54.986Z,3.20
2022-07-26T01:43:21.422Z,3.57
2022-07-26T01:45:47.747Z,3.30
2022-07-26T01:48:14.163Z,3.67
2022-07-26T01:50:40.563Z,4.03
2022-07-26T01:53:07.000Z,3.33
2022-07-26T01:55:34.436Z,4.00
2022-07-26T01:58:00.793Z,3.97
2022-07-26T02:00:27.333Z,3.37
2022-07-26T02:02:53.764Z,3.50
2022-07-26T02:05:20.275Z,3.47
2022-07-26T02:07:46.679Z,4.47
2022-07-26T02:10:14.649Z,4.40
2022-07-26T02:12:41.711Z,3.33
2022-07-26T02:15:10.056Z,4.20
2022-07-26T02:17:36.480Z,3.90
2022-07-26T02:20:03.889Z,3.53
2022-07-26T02:22:30.441Z,4.13
2022-07-26T02:24:59.485Z,4.10
2022-07-26T02:27:28.083Z,4.87
2022-07-26T02:29:54.433Z,4.33
2022-07-26T02:32:20.801Z,4.77
2022-07-26T02:34:47.177Z,3.23
2022-07-26T02:37:13.598Z,4.03
2022-07-26T02:39:40.079Z,4.40
2022-07-26T02:42:06.528Z,4.27
2022-07-26T02:44:34.743Z,4.30
2022-07-26T02:47:02.228Z,4.60
2022-07-26T02:49:28.509Z,4.27
2022-07-26T02:51:54.902Z,3.47
2022-07-26T02:54:21.191Z,3.13
2022-07-26T02:56:47.513Z,3.33
2022-07-26T02:59:13.917Z,3.40
2022-07-26T03:01:40.445Z,3.87
2022-07-26T03:04:09.772Z,3.40
2022-07-26T03:06:36.485Z,3.97
2022-07-26T03:09:03.123Z,3.20
2022-07-26T03:11:29.640Z,3.37
2022-07-26T03:13:56.006Z,3.17
2022-07-26T03:16:26.093Z,4.03
2022-07-26T03:18:55.698Z,2.93
2022-07-26T03:21:22.191Z,3.90
2022-07-26T03:23:48.650Z,3.50
2022-07-26T03:26:15.477Z,3.87
2022-07-26T03:28:42.538Z,3.57
2022-07-26T03:31:09.058Z,4.50
2022-07-26T03:33:35.529Z,4.40
2022-07-26T03:36:02.001Z,3.53
2022-07-26T03:38:28.405Z,4.20
2022-07-26T03:40:54.819Z,4.57
2022-07-26T03:43:23.300Z,4.67
2022-07-26T03:45:50.273Z,4.57
2022-07-26T03:48:16.694Z,4.87
2022-07-26T03:50:43.099Z,4.50
2022-07-26T03:53:09.497Z,4.37
2022-07-26T03:55:54.657Z,4.03
2022-07-26T03:58:22.162Z,3.80
2022-07-26T04:00:48.582Z,4.93
2022-07-26T04:03:15.049Z,5.07
2022-07-26T04:05:41.415Z,4.17
2022-07-26T04:08:15.464Z,4.50
2022-07-26T04:10:45.706Z,4.50
2022-07-26T04:13:12.068Z,4.87
2022-07-26T04:15:38.408Z,4.40
2022-07-26T04:18:04.862Z,5.27
2022-07-26T04:20:31.210Z,4.87
2022-07-26T04:22:57.584Z,4.77
2022-07-26T04:25:24.170Z,5.03
2022-07-26T04:27:50.536Z,5.30
2022-07-26T04:30:16.905Z,5.03
2022-07-26T04:32:46.724Z,5.27
2022-07-26T04:35:13.481Z,5.30
2022-07-26T04:37:42.550Z,5.73
2022-07-26T04:40:10.672Z,4.70
2022-07-26T04:42:39.343Z,4.73
2022-07-26T04:45:08.590Z,5.40
2022-07-26T04:47:35.442Z,6.27
2022-07-26T04:50:03.827Z,6.50
2022-07-26T04:52:30.225Z,5.90
2022-07-26T04:54:56.581Z,5.43
2022-07-26T04:57:23.479Z,5.20
2022-07-26T05:00:03.347Z,5.67
2022-07-26T05:02:36.631Z,5.33
2022-07-26T05:05:04.929Z,4.73
2022-07-26T05:07:48.390Z,6.00
2022-07-26T05:10:16.377Z,4.43
2022-07-26T05:12:43.042Z,4.63
2022-07-26T05:15:13.774Z,4.80
2022-07-26T05:17:43.088Z,4.77
2022-07-26T05:20:13.724Z,4.50
2022-07-26T05:22:40.099Z,6.47
2022-07-26T05:25:07.205Z,5.63
2022-07-26T05:27:34.035Z,4.93
2022-07-26T05:30:00.656Z,5.00
2022-07-26T05:32:28.093Z,4.83
2022-07-26T05:34:54.556Z,4.77
2022-07-26T05:37:21.060Z,4.80
2022-07-26T05:39:47.545Z,5.30
2022-07-26T05:42:13.964Z,4.77
2022-07-26T05:44:42.517Z,5.50
2022-07-26T05:47:09.914Z,4.97
2022-07-26T05:49:40.059Z,5.87
2022-07-26T05:52:08.001Z,5.67
2022-07-26T05:54:34.570Z,4.63
2022-07-26T05:57:00.945Z,5.20
2022-07-26T05:59:27.666Z,5.57
2022-07-26T06:01:56.349Z,5.47
2022-07-26T06:04:25.961Z,5.57
2022-07-26T06:06:54.437Z,5.40
2022-07-26T06:09:21.274Z,5.30
2022-07-26T06:11:47.559Z,5.00
2022-07-26T06:14:14.467Z,4.93
2022-07-26T06:16:41.334Z,5.20
2022-07-26T06:19:07.807Z,5.50
2022-07-26T06:21:34.169Z,5.27
2022-07-26T06:24:00.552Z,6.00
2022-07-26T06:26:26.920Z,6.30
2022-07-26T06:28:53.315Z,5.70
2022-07-26T06:31:19.755Z,5.83
2022-07-26T06:33:46.426Z,5.30
2022-07-26T06:36:12.889Z,6.03
2022-07-26T06:38:39.285Z,5.80
2022-07-26T06:41:05.837Z,6.40
2022-07-26T06:43:32.273Z,6.83
2022-07-26T06:45:58.696Z,6.43
2022-07-26T06:48:25.230Z,5.83
2022-07-26T06:50:51.647Z,5.40
2022-07-26T06:53:18.098Z,5.73
2022-07-26T06:55:44.527Z,6.13
2022-07-26T06:58:12.427Z,5.97
2022-07-26T07:00:38.945Z,6.33
2022-07-26T07:03:05.410Z,6.67
2022-07-26T07:05:32.798Z,7.17
2022-07-26T07:07:59.099Z,8.23
2022-07-26T07:10:25.469Z,10.47
2022-07-26T07:12:51.847Z,9.67
2022-07-26T07:15:18.269Z,11.10
2022-07-26T07:17:45.245Z,11.07
2022-07-26T07:20:12.994Z,9.03
2022-07-26T07:22:39.404Z,10.40
2022-07-26T07:25:06.285Z,9.80
2022-07-26T07:27:33.126Z,9.13
2022-07-26T07:29:59.752Z,8.80
2022-07-26T07:32:26.382Z,10.20
2022-07-26T07:34:52.978Z,8.67
2022-07-26T07:37:20.504Z,9.10
2022-07-26T07:39:50.019Z,8.33
2022-07-26T07:42:18.167Z,8.07
2022-07-26T07:44:44.619Z,7.63
2022-07-26T07:47:11.194Z,8.83
2022-07-26T07:49:37.633Z,9.07
2022-07-26T07:52:04.141Z,8.97
2022-07-26T07:54:30.584Z,8.10
2022-07-26T07:56:56.990Z,8.93
2022-07-26T07:59:24.241Z,10.30
2022-07-26T08:01:50.662Z,11.93
2022-07-26T08:04:17.236Z,11.90
2022-07-26T08:06:50.130Z,10.57
2022-07-26T08:09:17.999Z,9.70
2022-07-26T08:11:44.294Z,10.13
2022-07-26T08:14:10.650Z,9.87
2022-07-26T08:16:37.449Z,8.80
2022-07-26T08:19:03.819Z,10.13
2022-07-26T08:21:30.591Z,8.27
2022-07-26T08:23:57.858Z,6.67
2022-07-26T08:26:24.682Z,6.73
2022-07-26T08:28:59.626Z,7.03
2022-07-26T08:31:28.154Z,10.07
2022-07-26T08:33:55.800Z,9.93
2022-07-26T08:36:22.269Z,8.77
2022-07-26T08:38:48.704Z,8.03
2022-07-26T08:41:17.375Z,5.17
2022-07-26T08:43:51.052Z,5.43
2022-07-26T08:46:25.369Z,5.47
2022-07-26T08:48:53.085Z,5.10
2022-07-26T08:51:22.493Z,4.40
2022-07-26T08:53:50.178Z,4.60
2022-07-26T08:56:16.534Z,4.77
2022-07-26T08:58:43.770Z,4.13
2022-07-26T09:01:12.849Z,4.90
2022-07-26T09:03:40.741Z,4.33
2022-07-26T09:06:14.906Z,4.37
2022-07-26T09:08:42.111Z,4.77
2022-07-26T09:11:23.460Z,4.13
2022-07-26T09:13:51.897Z,4.33
2022-07-26T09:16:18.981Z,3.87
2022-07-26T09:18:45.388Z,4.27
2022-07-26T09:21:30.922Z,3.73
2022-07-26T09:23:58.530Z,4.63
2022-07-26T09:26:25.144Z,4.50
2022-07-26T09:29:12.887Z,3.90
2022-07-26T09:31:39.951Z,4.03
2022-07-26T09:34:07.377Z,4.30
2022-07-26T09:36:51.166Z,5.03
2022-07-26T09:39:17.556Z,4.37
2022-07-26T09:42:04.822Z,4.90
2022-07-26T09:44:40.959Z,5.40
2022-07-26T09:47:14.458Z,6.57
2022-07-26T09:49:41.993Z,6.40
2022-07-26T09:52:15.436Z,6.67
2022-07-26T09:54:41.794Z,6.70
2022-07-26T09:57:08.124Z,6.57
2022-07-26T09:59:34.490Z,6.70
2022-07-26T10:02:01.218Z,7.03
2022-07-26T10:04:27.666Z,7.20
2022-07-26T10:06:54.353Z,7.20
2022-07-26T10:09:22.843Z,7.17
2022-07-26T10:11:56.433Z,2.43
2022-07-26T10:14:45.702Z,1.77
2022-07-26T10:17:31.479Z,2.57
2022-07-26T10:19:58.492Z,1.90
2022-07-26T10:22:33.929Z,2.47
2022-07-26T10:25:18.631Z,2.00
2022-07-26T10:27:50.738Z,2.37
2022-07-26T10:30:17.070Z,2.10
2022-07-26T10:33:03.829Z,1.70
2022-07-26T10:35:36.268Z,1.80
2022-07-26T10:38:08.461Z,2.07
2022-07-26T10:40:35.969Z,1.90
2022-07-26T10:43:37.815Z,1.70
2022-07-26T10:46:14.288Z,2.00
2022-07-26T10:48:59.766Z,1.97
2022-07-26T10:51:27.542Z,1.90
2022-07-26T10:54:09.392Z,2.17
2022-07-26T10:56:36.028Z,2.03
2022-07-26T10:59:03.599Z,2.40
2022-07-26T11:01:34.849Z,1.70
2022-07-26T11:04:01.468Z,2.20
2022-07-26T11:06:29.038Z,1.90
2022-07-26T11:08:56.162Z,1.90
2022-07-26T11:11:29.876Z,2.00
2022-07-26T11:14:07.201Z,2.20
2022-07-26T11:16:41.256Z,2.03
2022-07-26T11:19:24.484Z,2.20
2022-07-26T11:21:55.936Z,1.97
2022-07-26T11:24:22.540Z,2.47
2022-07-26T11:26:48.871Z,2.20
2022-07-26T11:29:17.496Z,1.50
2022-07-26T11:31:50.673Z,1.20
2022-07-26T11:34:28.511Z,1.10
2022-07-26T11:36:57.320Z,1.27
2022-07-26T11:39:29.703Z,0.90
2022-07-26T11:42:00.592Z,1.33
2022-07-26T11:44:27.128Z,1.80
2022-07-26T11:46:53.926Z,1.87
2022-07-26T11:49:25.118Z,1.10
2022-07-26T11:52:02.289Z,1.47
2022-07-26T11:54:31.297Z,1.20
2022-07-26T11:57:00.406Z,2.10
2022-07-26T11:59:30.852Z,1.60
2022-07-26T12:01:58.531Z,1.93
2022-07-26T12:04:26.757Z,1.70
2022-07-26T12:06:55.144Z,1.90
2022-07-26T12:09:41.516Z,1.07
2022-07-26T12:12:09.309Z,2.77
2022-07-26T12:14:38.512Z,2.20
2022-07-26T12:17:15.500Z,2.57
2022-07-26T12:19:43.200Z,3.07
2022-07-26T12:22:13.788Z,2.10
2022-07-26T12:24:44.437Z,1.60
2022-07-26T12:27:22.008Z,1.00
2022-07-26T12:30:13.211Z,1.47
2022-07-26T12:32:41.999Z,1.10
2022-07-26T12:35:14.029Z,1.20
2022-07-26T12:37:46.407Z,1.10
2022-07-26T12:40:15.936Z,0.90
2022-07-26T12:42:44.756Z,1.13
2022-07-26T12:45:12.817Z,1.10
2022-07-26T12:47:42.273Z,1.20
2022-07-26T12:50:09.503Z,1.10
2022-07-26T12:52:36.360Z,1.27
2022-07-26T12:55:03.743Z,1.00
2022-07-26T12:57:30.121Z,1.10
2022-07-26T12:59:58.153Z,1.00
2022-07-26T13:02:25.555Z,1.50
2022-07-26T13:04:55.520Z,1.37
2022-07-26T13:07:26.207Z,0.90
2022-07-26T13:10:21.497Z,1.00
2022-07-26T13:12:40.205Z,1.03
2022-07-26T13:15:06.778Z,0.87
2022-07-26T13:17:33.160Z,1.13
2022-07-26T13:19:59.642Z,0.90
2022-07-26T13:22:26.042Z,1.47
2022-07-26T13:24:52.618Z,1.00
2022-07-26T13:27:20.234Z,1.10
2022-07-26T13:29:46.608Z,1.00
2022-07-26T13:32:12.924Z,1.00
2022-07-26T13:34:39.277Z,1.07
2022-07-26T13:37:08.091Z,1.20
2022-07-26T13:39:35.041Z,1.30
2022-07-26T13:42:01.374Z,1.23
2022-07-26T13:44:27.652Z,0.87
2022-07-26T13:46:54.107Z,1.13
2022-07-26T13:49:20.569Z,1.33
2022-07-26T13:51:59.309Z,1.13
2022-07-26T13:54:26.924Z,0.90
2022-07-26T13:56:54.385Z,1.10
2022-07-26T13:59:20.811Z,0.80
2022-07-26T14:01:47.160Z,0.83
2022-07-26T14:04:14.783Z,0.80
2022-07-26T14:06:41.841Z,0.77
2022-07-26T14:09:11.036Z,0.80
2022-07-26T14:11:38.404Z,1.30
2022-07-26T14:14:05.099Z,1.10
2022-07-26T14:16:31.645Z,0.87
2022-07-26T14:18:58.344Z,0.80
2022-07-26T14:21:29.588Z,0.90
2022-07-26T14:24:10.371Z,1.10
2022-07-26T14:26:36.820Z,0.90
2022-07-26T14:29:03.773Z,0.80
2022-07-26T14:31:32.305Z,0.80
2022-07-26T14:33:59.022Z,0.90
2022-07-26T14:36:25.372Z,1.10
2022-07-26T14:38:51.858Z,0.90
2022-07-26T14:41:18.271Z,0.97
2022-07-26T14:43:45.249Z,1.17
2022-07-26T14:46:12.638Z,1.83
2022-07-26T14:48:54.144Z,1.10
2022-07-26T14:51:21.545Z,0.80
2022-07-26T14:53:48.104Z,1.17
2022-07-26T14:56:14.514Z,1.00
2022-07-26T14:58:40.949Z,1.20
2022-07-26T15:01:07.639Z,1.00
2022-07-26T15:03:34.227Z,0.90
2022-07-26T15:06:00.642Z,0.80
2022-07-26T15:08:27.080Z,1.20
2022-07-26T15:10:53.449Z,0.90
2022-07-26T15:13:19.951Z,0.90
2022-07-26T15:15:46.329Z,0.80
2022-07-26T15:18:12.716Z,0.90
2022-07-26T15:20:39.659Z,1.20
2022-07-26T15:23:07.944Z,0.90
2022-07-26T15:25:35.379Z,0.90
2022-07-26T15:28:01.807Z,0.93
2022-07-26T15:30:28.192Z,1.20
2022-07-26T15:32:56.474Z,1.03
2022-07-26T15:35:22.784Z,1.33
2022-07-26T15:37:49.080Z,0.80
2022-07-26T15:40:16.045Z,0.80
2022-07-26T15:42:44.174Z,1.10
2022-07-26T15:45:12.000Z,1.10
2022-07-26T15:48:00.061Z,0.97
2022-07-26T15:50:26.176Z,1.37
2022-07-26T15:52:52.784Z,1.67
2022-07-26T15:55:19.217Z,1.30
2022-07-26T15:57:46.467Z,1.50
2022-07-26T16:00:13.855Z,1.07
2022-07-26T16:02:40.689Z,1.53
2022-07-26T16:05:07.860Z,1.23
2022-07-26T16:07:34.348Z,1.30
2022-07-26T16:10:01.526Z,1.30
2022-07-26T16:12:29.252Z,1.60
2022-07-26T16:14:55.569Z,1.10
2022-07-26T16:17:21.950Z,1.00
2022-07-26T16:19:48.667Z,1.20
2022-07-26T16:22:15.167Z,1.10
2022-07-26T16:24:41.452Z,1.30
2022-07-26T16:27:07.822Z,1.70
2022-07-26T16:29:34.239Z,1.13
2022-07-26T16:32:00.694Z,1.90
2022-07-26T16:34:28.261Z,1.47
2022-07-26T16:36:54.546Z,1.57
2022-07-26T16:39:20.839Z,1.70
2022-07-26T16:41:47.255Z,1.63
2022-07-26T16:44:13.580Z,1.67
2022-07-26T16:46:40.018Z,1.53
2022-07-26T16:49:06.495Z,1.73
2022-07-26T16:51:32.979Z,1.50
2022-07-26T16:53:59.504Z,1.57
2022-07-26T16:56:25.910Z,1.63
2022-07-26T16:58:52.257Z,1.47
2022-07-26T17:01:18.595Z,1.63
2022-07-26T17:03:44.999Z,1.60
2022-07-26T17:06:11.738Z,1.90
2022-07-26T17:08:38.331Z,2.10
2022-07-26T17:11:04.736Z,2.00
2022-07-26T17:13:31.170Z,1.93
2022-07-26T17:15:57.676Z,1.40
2022-07-26T17:18:24.193Z,1.87
2022-07-26T17:20:50.739Z,1.73
2022-07-26T17:23:18.444Z,2.13
2022-07-26T17:25:45.412Z,1.40
2022-07-26T17:28:11.758Z,1.30
2022-07-26T17:30:38.078Z,1.63
2022-07-26T17:33:04.830Z,1.77
2022-07-26T17:35:31.504Z,1.47
2022-07-26T17:37:57.899Z,1.80
2022-07-26T17:40:25.840Z,2.17
2022-07-26T17:42:53.384Z,1.40
2022-07-26T17:45:19.858Z,1.40
2022-07-26T17:47:46.832Z,1.70
2022-07-26T17:50:35.478Z,1.40
2022-07-26T17:52:59.477Z,2.20
2022-07-26T17:55:25.842Z,1.80
2022-07-26T17:57:52.576Z,1.93
2022-07-26T18:00:21.437Z,2.37
2022-07-26T18:02:48.250Z,1.63
2022-07-26T18:05:14.726Z,1.73
2022-07-26T18:07:41.304Z,2.03
2022-07-26T18:10:07.796Z,1.73
2022-07-26T18:12:34.208Z,1.83
2022-07-26T18:15:00.605Z,1.77
2022-07-26T18:17:26.893Z,1.70
2022-07-26T18:19:53.286Z,1.90
2022-07-26T18:22:19.647Z,1.40
2022-07-26T18:24:46.312Z,1.60
2022-07-26T18:27:12.632Z,1.63
2022-07-26T18:29:39.065Z,1.80
2022-07-26T18:32:05.872Z,1.70
2022-07-26T18:34:32.293Z,1.47
2022-07-26T18:36:58.688Z,1.43
2022-07-26T18:39:25.111Z,1.37
2022-07-26T18:41:59.082Z,1.40
2022-07-26T18:44:25.444Z,1.63
2022-07-26T18:46:52.356Z,1.83
2022-07-26T18:49:20.068Z,2.73
2022-07-26T18:51:48.471Z,1.53
2022-07-26T18:54:15.855Z,2.50
2022-07-26T18:56:42.195Z,1.90
2022-07-26T18:59:09.036Z,2.57
2022-07-26T19:01:35.728Z,1.50
2022-07-26T19:04:06.501Z,1.40
2022-07-26T19:06:34.590Z,1.93
2022-07-26T19:09:01.238Z,1.70
2022-07-26T19:11:29.431Z,2.20
2022-07-26T19:13:55.733Z,1.57
2022-07-26T19:16:22.188Z,1.80
2022-07-26T19:18:50.171Z,1.80
2022-07-26T19:21:19.175Z,1.70
2022-07-26T19:23:45.568Z,1.50
2022-07-26T19:26:11.924Z,1.67
2022-07-26T19:28:38.305Z,1.87
2022-07-26T19:31:04.779Z,1.50
2022-07-26T19:33:31.213Z,2.20
2022-07-26T19:35:58.938Z,1.73
2022-07-26T19:38:25.452Z,1.50
2022-07-26T19:40:52.717Z,1.50
2022-07-26T19:43:19.205Z,1.50
2022-07-26T19:45:48.063Z,1.43
2022-07-26T19:48:14.428Z,1.20
2022-07-26T19:50:41.193Z,1.60
2022-07-26T19:53:07.475Z,1.27
2022-07-26T19:55:33.832Z,1.87
2022-07-26T19:58:00.177Z,1.20
2022-07-26T20:00:27.896Z,1.60
2022-07-26T20:02:54.412Z,1.47
2022-07-26T20:05:20.818Z,1.90
2022-07-26T20:07:48.837Z,1.80
2022-07-26T20:10:15.244Z,1.60
2022-07-26T20:12:42.589Z,2.13
2022-07-26T20:15:09.736Z,2.00
2022-07-26T20:17:38.979Z,1.80
2022-07-26T20:20:07.498Z,1.80
2022-07-26T20:22:33.827Z,1.90
2022-07-26T20:25:00.270Z,2.23
2022-07-26T20:27:26.739Z,1.97
2022-07-26T20:29:57.450Z,1.97
2022-07-26T20:32:26.843Z,1.73
2022-07-26T20:34:53.254Z,1.30
2022-07-26T20:37:19.665Z,1.60
2022-07-26T20:39:46.831Z,1.73
2022-07-26T20:42:21.551Z,1.50
2022-07-26T20:44:48.663Z,1.30
2022-07-26T20:47:15.130Z,1.57
2022-07-26T20:49:41.518Z,1.77
2022-07-26T20:52:08.110Z,2.03
2022-07-26T20:54:34.572Z,1.30
2022-07-26T20:57:00.948Z,1.70
2022-07-26T20:59:32.185Z,2.07
2022-07-26T21:01:58.631Z,1.80
2022-07-26T21:04:25.014Z,2.27
2022-07-26T21:06:51.414Z,1.83
2022-07-26T21:09:19.096Z,1.40
2022-07-26T21:11:45.393Z,1.87
2022-07-26T21:14:12.005Z,2.00
2022-07-26T21:16:38.499Z,2.33
2022-07-26T21:19:05.906Z,2.10
2022-07-26T21:21:33.967Z,1.70
2022-07-26T21:24:00.329Z,1.70
2022-07-26T21:26:26.804Z,1.73
2022-07-26T21:28:53.179Z,2.40
2022-07-26T21:31:20.901Z,1.93
2022-07-26T21:33:47.384Z,2.13
2022-07-26T21:36:14.233Z,1.83
2022-07-26T21:38:41.480Z,1.60
2022-07-26T21:41:07.852Z,1.80
2022-07-26T21:43:34.436Z,1.37
2022-07-26T21:46:00.850Z,1.60
2022-07-26T21:48:27.673Z,1.23
2022-07-26T21:50:54.061Z,1.47
2022-07-26T21:53:20.443Z,1.77
2022-07-26T21:55:46.896Z,1.60
2022-07-26T21:58:13.305Z,1.43
2022-07-26T22:00:39.813Z,1.50
2022-07-26T22:03:07.269Z,2.33
2022-07-26T22:05:39.712Z,1.77
2022-07-26T22:08:08.251Z,1.57
2022-07-26T22:10:35.415Z,2.00
2022-07-26T22:13:11.096Z,1.63
2022-07-26T22:15:37.406Z,2.03
2022-07-26T22:18:03.954Z,1.70
2022-07-26T22:20:31.933Z,1.93
2022-07-26T22:22:59.639Z,1.77
2022-07-26T22:25:27.354Z,1.50
2022-07-26T22:27:54.140Z,1.63
2022-07-26T22:30:20.777Z,1.40
2022-07-26T22:32:47.171Z,1.77
2022-07-26T22:35:13.577Z,1.93
2022-07-26T22:37:40.052Z,1.60
2022-07-26T22:40:07.018Z,1.87
2022-07-26T22:42:33.307Z,1.60
2022-07-26T22:44:59.717Z,1.40
2022-07-26T22:47:26.367Z,1.20
2022-07-26T22:49:52.824Z,2.17
2022-07-26T22:52:19.360Z,1.93
2022-07-26T22:54:45.648Z,1.63
2022-07-26T22:57:12.020Z,1.50
2022-07-26T22:59:38.520Z,1.70
2022-07-26T23:02:04.908Z,1.70
2022-07-26T23:04:31.294Z,1.70
2022-07-26T23:06:57.639Z,1.60
2022-07-26T23:09:25.064Z,1.77
2022-07-26T23:11:51.428Z,1.90
2022-07-26T23:14:17.711Z,1.73
2022-07-26T23:16:45.080Z,1.87
2022-07-26T23:19:11.885Z,1.60
2022-07-26T23:21:38.565Z,1.73
2022-07-26T23:24:05.149Z,1.63
2022-07-26T23:26:31.748Z,1.53
2022-07-26T23:28:58.126Z,1.93
2022-07-26T23:31:24.831Z,1.63
2022-07-26T23:33:54.453Z,1.37
2022-07-26T23:36:22.031Z,1.60
2022-07-26T23:38:48.397Z,1.40
2022-07-26T23:41:14.776Z,1.77
2022-07-26T23:43:41.189Z,1.70
2022-07-26T23:46:07.587Z,1.77
2022-07-26T23:48:34.030Z,1.60
2022-07-26T23:51:00.581Z,1.77
2022-07-26T23:53:27.346Z,1.93
2022-07-26T23:55:54.160Z,1.73
2022-07-26T23:58:20.504Z,1.73
